createdAt,value
2022-11-01T00:02:19.100Z,100249.66
2022-11-01T00:04:46.641Z,100251.59
2022-11-01T00:07:14.127Z,100253.53
2022-11-01T00:09:41.542Z,100253.44
2022-11-01T00:12:08.963Z,100249.72
2022-11-01T00:14:36.746Z,100248.53
2022-11-01T00:17:04.460Z,100244.22
2022-11-01T00:19:31.978Z,100245.47
2022-11-01T00:21:59.424Z,100240.25
2022-11-01T00:24:27.084Z,100242.53
2022-11-01T00:26:54.585Z,100245.63
2022-11-01T00:29:22.033Z,100246.09
2022-11-01T00:31:49.750Z,100240.50
2022-11-01T00:34:18.033Z,100241.06
2022-11-01T00:36:45.479Z,100242.13
2022-11-01T00:39:16.753Z,100239.66
2022-11-01T00:41:44.186Z,100235.59
2022-11-01T00:44:11.693Z,100233.19
2022-11-01T00:46:40.432Z,100232.47
2022-11-01T00:49:07.851Z,100232.22
2022-11-01T00:51:35.283Z,100234.75
2022-11-01T00:54:02.747Z,100233.78
2022-11-01T00:56:30.232Z,100239.22
2022-11-01T00:58:57.665Z,100229.84
2022-11-01T01:01:25.319Z,100230.28
2022-11-01T01:03:52.837Z,100229.81
2022-11-01T01:06:20.511Z,100235.31
2022-11-01T01:08:47.900Z,100228.22
2022-11-01T01:11:15.889Z,100228.09
2022-11-01T01:13:43.471Z,100228.09
2022-11-01T01:16:13.050Z,100230.22
2022-11-01T01:18:40.770Z,100230.78
2022-11-01T01:21:08.594Z,100230.56
2022-11-01T01:23:37.187Z,100231.66
2022-11-01T01:26:09.704Z,100227.94
2022-11-01T01:28:41.878Z,100226.75
2022-11-01T01:31:14.177Z,100231.34
2022-11-01T01:33:41.745Z,100235.44
2022-11-01T01:36:09.436Z,100234.22
2022-11-01T01:38:37.133Z,100236.72
2022-11-01T01:41:24.129Z,100234.09
2022-11-01T01:43:51.600Z,100232.94
2022-11-01T01:46:19.074Z,100235.84
2022-11-01T01:48:52.510Z,100240.22
2022-11-01T01:51:26.048Z,100239.63
2022-11-01T01:53:55.975Z,100242.84
2022-11-01T01:56:43.724Z,100243.16
2022-11-01T01:59:11.767Z,100245.06
2022-11-01T02:01:41.974Z,100257.19
2022-11-01T02:04:22.416Z,100249.41
2022-11-01T02:06:50.293Z,100250.63
2022-11-01T02:09:19.058Z,100252.03
2022-11-01T02:11:47.318Z,100247.22
2022-11-01T02:14:15.434Z,100254.63
2022-11-01T02:17:06.883Z,100258.34
2022-11-01T02:20:20.958Z,100260.72
2022-11-01T02:23:28.443Z,100262.88
2022-11-01T02:26:22.924Z,100262.22
2022-11-01T02:29:39.650Z,100269.94
2022-11-01T02:32:25.104Z,100264.09
2022-11-01T02:35:36.666Z,100264.31
2022-11-01T02:38:19.346Z,100270.13
2022-11-01T02:41:17.116Z,100268.00
2022-11-01T02:44:00.531Z,100271.22
2022-11-01T02:46:55.817Z,100261.47
2022-11-01T02:49:26.795Z,100264.19
2022-11-01T02:51:57.016Z,100259.72
2022-11-01T02:54:33.362Z,100260.34
2022-11-01T02:57:20.875Z,100263.91
2022-11-01T02:59:49.627Z,100260.69
2022-11-01T03:02:41.082Z,100265.00
2022-11-01T03:05:20.248Z,100260.75
2022-11-01T03:08:00.224Z,100269.38
2022-11-01T03:10:53.440Z,100277.88
2022-11-01T03:13:56.740Z,100276.31
2022-11-01T03:16:36.653Z,100281.41
2022-11-01T03:19:26.415Z,100272.47
2022-11-01T03:22:23.909Z,100276.25
2022-11-01T03:24:56.813Z,100279.59
2022-11-01T03:27:32.678Z,100282.09
2022-11-01T03:30:07.205Z,100286.31
2022-11-01T03:32:45.957Z,100288.16
2022-11-01T03:35:25.785Z,100298.06
2022-11-01T03:37:59.252Z,100287.91
2022-11-01T03:40:29.596Z,100287.22
2022-11-01T03:43:05.375Z,100288.06
2022-11-01T03:45:37.720Z,100289.91
2022-11-01T03:48:06.553Z,100288.69
2022-11-01T03:50:34.978Z,100293.31
2022-11-01T03:53:02.822Z,100287.97
2022-11-01T03:55:30.271Z,100288.00
2022-11-01T03:58:00.436Z,100285.44
2022-11-01T04:00:36.651Z,100287.63
2022-11-01T04:03:04.507Z,100292.53
2022-11-01T04:05:34.180Z,100297.53
2022-11-01T04:08:06.066Z,100294.00
2022-11-01T04:10:34.083Z,100297.50
2022-11-01T04:13:02.215Z,100296.22
2022-11-01T04:15:48.996Z,100295.69
2022-11-01T04:18:42.881Z,100293.75
2022-11-01T04:21:14.332Z,100278.75
2022-11-01T04:23:43.096Z,100290.59
2022-11-01T04:26:19.340Z,100291.81
2022-11-01T04:28:57.234Z,100287.53
2022-11-01T04:31:36.966Z,100283.53
2022-11-01T04:34:05.954Z,100281.78
2022-11-01T04:36:33.400Z,100284.59
2022-11-01T04:39:00.893Z,100286.44
2022-11-01T04:41:30.177Z,100295.41
2022-11-01T04:43:59.964Z,100296.69
2022-11-01T04:46:32.063Z,100297.47
2022-11-01T04:49:00.084Z,100297.13
2022-11-01T04:51:27.698Z,100297.72
2022-11-01T04:53:55.256Z,100302.94
2022-11-01T04:56:22.654Z,100304.44
2022-11-01T04:58:50.066Z,100298.66
2022-11-01T05:01:17.913Z,100308.72
2022-11-01T05:03:45.423Z,100311.75
2022-11-01T05:06:12.890Z,100309.47
2022-11-01T05:08:40.339Z,100311.03
2022-11-01T05:11:07.816Z,100308.41
2022-11-01T05:13:36.056Z,100317.25
2022-11-01T05:16:21.000Z,100318.75
2022-11-01T05:18:51.542Z,100320.66
2022-11-01T05:21:19.053Z,100317.25
2022-11-01T05:23:49.157Z,100322.34
2022-11-01T05:26:17.332Z,100311.22
2022-11-01T05:28:44.785Z,100324.59
2022-11-01T05:31:12.399Z,100324.84
2022-11-01T05:33:39.826Z,100318.63
2022-11-01T05:36:07.703Z,100327.59
2022-11-01T05:38:35.171Z,100328.16
2022-11-01T05:41:04.433Z,100326.38
2022-11-01T05:43:31.946Z,100330.06
2022-11-01T05:46:02.831Z,100327.84
2022-11-01T05:48:30.419Z,100330.25
2022-11-01T05:50:57.819Z,100337.16
2022-11-01T05:53:25.418Z,100339.50
2022-11-01T05:55:55.760Z,100348.47
2022-11-01T05:58:26.511Z,100346.91
2022-11-01T06:01:06.537Z,100353.63
2022-11-01T06:03:36.256Z,100358.75
2022-11-01T06:06:04.281Z,100361.91
2022-11-01T06:08:32.662Z,100358.09
2022-11-01T06:11:04.852Z,100361.97
2022-11-01T06:13:33.574Z,100368.03
2022-11-01T06:16:05.129Z,100372.97
2022-11-01T06:18:35.668Z,100368.41
2022-11-01T06:21:03.113Z,100370.50
2022-11-01T06:23:30.626Z,100371.56
2022-11-01T06:26:03.801Z,100379.22
2022-11-01T06:28:33.383Z,100381.72
2022-11-01T06:31:03.372Z,100377.81
2022-11-01T06:33:32.418Z,100381.69
2022-11-01T06:36:01.567Z,100373.84
2022-11-01T06:38:29.129Z,100373.84
2022-11-01T06:40:58.300Z,100386.75
2022-11-01T06:43:25.825Z,100372.31
2022-11-01T06:45:53.420Z,100385.75
2022-11-01T06:48:20.901Z,100381.44
2022-11-01T06:50:48.355Z,100375.94
2022-11-01T06:53:15.812Z,100377.19
2022-11-01T06:55:43.291Z,100376.31
2022-11-01T06:58:10.760Z,100374.16
2022-11-01T07:00:38.230Z,100372.44
2022-11-01T07:03:13.359Z,100382.22
2022-11-01T07:05:41.743Z,100376.44
2022-11-01T07:08:13.009Z,100384.03
2022-11-01T07:10:43.166Z,100378.56
2022-11-01T07:13:13.646Z,100383.59
2022-11-01T07:15:42.333Z,100374.47
2022-11-01T07:18:10.455Z,100378.72
2022-11-01T07:20:42.127Z,100388.97
2022-11-01T07:23:14.351Z,100383.09
2022-11-01T07:25:42.546Z,100377.09
2022-11-01T07:28:10.799Z,100376.38
2022-11-01T07:30:39.300Z,100386.94
2022-11-01T07:33:07.169Z,100382.13
2022-11-01T07:35:35.674Z,100381.91
2022-11-01T07:38:06.424Z,100376.53
2022-11-01T07:40:40.301Z,100387.69
2022-11-01T07:43:09.863Z,100381.19
2022-11-01T07:45:37.469Z,100379.03
2022-11-01T07:48:17.043Z,100372.41
2022-11-01T07:50:48.088Z,100377.81
2022-11-01T07:53:19.409Z,100371.50
2022-11-01T07:55:47.473Z,100378.28
2022-11-01T07:58:20.765Z,100384.63
2022-11-01T08:00:48.298Z,100381.81
2022-11-01T08:03:19.520Z,100368.97
2022-11-01T08:05:48.696Z,100371.75
2022-11-01T08:08:16.836Z,100369.22
2022-11-01T08:10:46.304Z,100373.34
2022-11-01T08:13:19.335Z,100366.09
2022-11-01T08:15:49.193Z,100368.56
2022-11-01T08:18:20.262Z,100362.81
2022-11-01T08:20:47.926Z,100357.75
2022-11-01T08:23:15.689Z,100353.78
2022-11-01T08:25:43.462Z,100355.69
2022-11-01T08:28:17.692Z,100357.75
2022-11-01T08:30:49.072Z,100354.84
2022-11-01T08:33:16.630Z,100356.41
2022-11-01T08:35:50.133Z,100346.53
2022-11-01T08:38:20.149Z,100345.25
2022-11-01T08:40:48.299Z,100343.00
2022-11-01T08:43:16.022Z,100353.38
2022-11-01T08:45:43.473Z,100355.00
2022-11-01T08:48:11.402Z,100348.84
2022-11-01T08:50:39.320Z,100346.34
2022-11-01T08:53:12.946Z,100348.78
2022-11-01T08:55:41.676Z,100343.50
2022-11-01T08:58:09.920Z,100344.31
2022-11-01T09:00:38.003Z,100342.97
2022-11-01T09:03:05.675Z,100342.38
2022-11-01T09:05:33.290Z,100347.66
2022-11-01T09:08:01.996Z,100335.00
2022-11-01T09:10:32.985Z,100338.72
2022-11-01T09:13:01.786Z,100340.38
2022-11-01T09:15:31.163Z,100335.38
2022-11-01T09:17:58.732Z,100325.88
2022-11-01T09:20:28.251Z,100334.06
2022-11-01T09:22:55.725Z,100336.00
2022-11-01T09:25:23.196Z,100325.13
2022-11-01T09:27:50.663Z,100321.66
2022-11-01T09:30:18.430Z,100318.53
2022-11-01T09:32:46.125Z,100327.72
2022-11-01T09:35:13.545Z,100315.63
2022-11-01T09:37:41.047Z,100310.72
2022-11-01T09:40:11.327Z,100310.63
2022-11-01T09:43:03.393Z,100308.25
2022-11-01T09:45:34.976Z,100305.56
2022-11-01T09:48:13.670Z,100296.44
2022-11-01T09:50:43.851Z,100301.56
2022-11-01T09:53:30.514Z,100298.50
2022-11-01T09:56:10.391Z,100300.03
2022-11-01T09:59:04.892Z,100290.84
2022-11-01T10:01:41.195Z,100284.69
2022-11-01T10:04:45.994Z,100290.06
2022-11-01T10:07:52.566Z,100277.81
2022-11-01T10:10:44.248Z,100284.31
2022-11-01T10:13:49.921Z,100285.47
2022-11-01T10:16:42.093Z,100273.09
2022-11-01T10:19:19.005Z,100268.69
2022-11-01T10:21:50.693Z,100261.25
2022-11-01T10:24:41.520Z,100268.13
2022-11-01T10:27:40.978Z,100268.56
2022-11-01T10:30:17.336Z,100260.91
2022-11-01T10:32:55.743Z,100260.88
2022-11-01T10:35:41.308Z,100259.53
2022-11-01T10:38:59.169Z,100263.84
2022-11-01T10:41:52.373Z,100246.28
2022-11-01T10:44:33.878Z,100250.16
2022-11-01T10:47:07.181Z,100251.56
2022-11-01T10:52:45.447Z,100235.41
2022-11-01T10:55:25.225Z,100229.94
2022-11-01T10:58:05.481Z,100233.69
2022-11-01T11:00:38.280Z,100223.25
2022-11-01T11:03:27.958Z,100222.66
2022-11-01T11:05:59.455Z,100216.59
2022-11-01T11:08:27.471Z,100210.94
2022-11-01T11:11:01.694Z,100206.22
2022-11-01T11:13:50.513Z,100206.97
2022-11-01T11:16:47.230Z,100199.44
2022-11-01T11:19:26.332Z,100199.44
2022-11-01T11:21:56.060Z,100189.34
2022-11-01T11:24:39.362Z,100194.41
2022-11-01T11:27:33.587Z,100198.34
2022-11-01T11:30:05.683Z,100186.72
2022-11-01T11:32:35.967Z,100180.75
2022-11-01T11:35:14.985Z,100179.81
2022-11-01T11:37:59.731Z,100180.66
2022-11-01T11:40:42.376Z,100177.88
2022-11-01T11:43:30.423Z,100171.84
2022-11-01T11:46:36.804Z,100166.72
2022-11-01T11:49:07.289Z,100167.19
2022-11-01T11:51:39.439Z,100173.09
2022-11-01T11:54:24.778Z,100167.63
2022-11-01T11:57:10.120Z,100165.53
2022-11-01T11:59:38.585Z,100156.53
2022-11-01T12:02:40.999Z,100159.19
2022-11-01T12:05:17.212Z,100153.81
2022-11-01T12:07:56.923Z,100154.72
2022-11-01T12:10:46.771Z,100146.25
2022-11-01T12:13:37.622Z,100154.38
2022-11-01T12:16:25.079Z,100143.03
2022-11-01T12:19:01.703Z,100131.84
2022-11-01T12:21:35.952Z,100139.44
2022-11-01T12:24:34.309Z,100137.47
2022-11-01T12:27:10.303Z,100137.59
2022-11-01T12:29:57.894Z,100131.31
2022-11-01T12:32:54.128Z,100135.28
2022-11-01T12:35:33.160Z,100131.25
2022-11-01T12:38:09.907Z,100134.63
2022-11-01T12:40:39.254Z,100135.44
2022-11-01T12:43:49.711Z,100136.75
2022-11-01T12:46:34.677Z,100127.91
2022-11-01T12:50:05.236Z,100129.78
2022-11-01T12:52:44.856Z,100134.34
2022-11-01T12:55:35.182Z,100120.59
2022-11-01T12:58:04.158Z,100122.44
2022-11-01T13:01:13.513Z,100126.94
2022-11-01T13:03:48.055Z,100120.38
2022-11-01T13:06:59.954Z,100129.50
2022-11-01T13:10:07.197Z,100117.41
2022-11-01T13:13:27.700Z,100121.13
2022-11-01T13:16:27.966Z,100120.72
2022-11-01T13:19:23.380Z,100113.44
2022-11-01T13:21:56.486Z,100112.47
2022-11-01T13:24:32.069Z,100115.44
2022-11-01T13:27:19.819Z,100113.13
2022-11-01T13:30:15.841Z,100113.78
2022-11-01T13:33:02.137Z,100111.38
2022-11-01T13:35:53.272Z,100110.00
2022-11-01T13:38:40.585Z,100109.38
2022-11-01T13:41:35.340Z,100103.16
2022-11-01T13:44:20.982Z,100098.41
2022-11-01T13:47:23.479Z,100101.53
2022-11-01T13:50:25.909Z,100098.16
2022-11-01T13:53:04.841Z,100092.56
2022-11-01T13:55:43.886Z,100094.94
2022-11-01T13:58:22.075Z,100089.44
2022-11-01T14:00:55.684Z,100091.44
2022-11-01T14:03:25.889Z,100087.59
2022-11-01T14:09:25.998Z,100091.22
2022-11-01T14:12:31.900Z,100085.75
2022-11-01T14:15:27.840Z,100088.84
2022-11-01T14:18:07.462Z,100085.75
2022-11-01T14:20:44.562Z,100089.97
2022-11-01T14:23:30.213Z,100081.25
2022-11-01T14:26:20.010Z,100083.22
2022-11-01T14:28:51.477Z,100081.41
2022-11-01T14:31:24.635Z,100079.72
2022-11-01T14:33:59.881Z,100082.06
2022-11-01T14:36:33.063Z,100082.06
2022-11-01T14:39:40.106Z,100076.16
2022-11-01T14:42:13.326Z,100080.63
2022-11-01T14:44:49.738Z,100074.00
2022-11-01T14:47:39.719Z,100069.44
2022-11-01T14:51:03.742Z,100068.69
2022-11-01T14:53:38.450Z,100065.72
2022-11-01T14:56:27.388Z,100064.56
2022-11-01T14:59:22.186Z,100057.28
2022-11-01T15:01:59.488Z,100058.56
2022-11-01T15:04:33.591Z,100050.28
2022-11-01T15:07:02.266Z,100050.16
2022-11-01T15:09:31.934Z,100048.03
2022-11-01T15:12:11.278Z,100049.22
2022-11-01T15:14:47.319Z,100050.38
2022-11-01T15:17:30.668Z,100057.84
2022-11-01T15:19:59.984Z,100052.31
2022-11-01T15:22:31.414Z,100050.88
2022-11-01T15:25:03.572Z,100057.44
2022-11-01T15:27:44.298Z,100057.47
2022-11-01T15:30:20.495Z,100051.69
2022-11-01T15:32:54.033Z,100048.56
2022-11-01T15:35:26.576Z,100053.13
2022-11-01T15:37:55.442Z,100053.09
2022-11-01T15:40:37.376Z,100045.72
2022-11-01T15:43:05.370Z,100044.88
2022-11-01T15:45:36.974Z,100041.28
2022-11-01T15:48:14.823Z,100057.53
2022-11-01T15:50:50.149Z,100050.28
2022-11-01T15:53:24.797Z,100051.75
2022-11-01T15:56:24.593Z,100059.34
2022-11-01T16:01:29.052Z,100056.88
2022-11-01T16:04:10.592Z,100059.81
2022-11-01T16:06:47.304Z,100062.03
2022-11-01T16:09:45.908Z,100062.25
2022-11-01T16:12:25.843Z,100068.16
2022-11-01T16:15:06.370Z,100062.34
2022-11-01T16:18:01.836Z,100066.03
2022-11-01T16:20:41.355Z,100077.34
2022-11-01T16:23:15.558Z,100075.47
2022-11-01T16:25:43.399Z,100078.16
2022-11-01T16:28:13.767Z,100072.81
2022-11-01T16:30:51.178Z,100080.69
2022-11-01T16:33:35.396Z,100084.44
2022-11-01T16:36:34.352Z,100078.31
2022-11-01T16:39:02.022Z,100084.56
2022-11-01T16:41:38.085Z,100089.00
2022-11-01T16:44:16.327Z,100088.66
2022-11-01T16:46:44.375Z,100081.88
2022-11-01T16:49:14.697Z,100089.44
2022-11-01T16:51:42.491Z,100086.91
2022-11-01T16:54:10.658Z,100089.47
2022-11-01T16:56:51.715Z,100099.00
2022-11-01T16:59:34.347Z,100092.91
2022-11-01T17:02:22.116Z,100095.16
2022-11-01T17:05:19.520Z,100100.38
2022-11-01T17:07:48.206Z,100099.84
2022-11-01T17:10:22.443Z,100099.56
2022-11-01T17:12:54.173Z,100099.78
2022-11-01T17:15:21.734Z,100104.97
2022-11-01T17:17:49.852Z,100099.13
2022-11-01T17:23:27.244Z,100102.16
2022-11-01T17:25:57.645Z,100106.06
2022-11-01T17:28:25.224Z,100105.50
2022-11-01T17:30:53.336Z,100101.66
2022-11-01T17:33:22.058Z,100112.84
2022-11-01T17:35:49.779Z,100115.34
2022-11-01T17:38:30.278Z,100110.16
2022-11-01T17:41:00.955Z,100114.75
2022-11-01T17:43:29.856Z,100105.94
2022-11-01T17:46:00.147Z,100111.09
2022-11-01T17:48:27.635Z,100106.41
2022-11-01T17:51:01.709Z,100104.38
2022-11-01T17:53:31.614Z,100110.78
2022-11-01T17:56:00.378Z,100105.06
2022-11-01T17:58:30.120Z,100105.72
2022-11-01T18:01:00.666Z,100110.56
2022-11-01T18:03:28.710Z,100106.72
2022-11-01T18:06:02.262Z,100109.94
2022-11-01T18:08:35.229Z,100106.13
2022-11-01T18:11:22.890Z,100102.25
2022-11-01T18:14:26.694Z,100107.41
2022-11-01T18:17:11.358Z,100104.41
2022-11-01T18:20:11.288Z,100109.97
2022-11-01T18:22:57.982Z,100120.75
2022-11-01T18:25:49.797Z,100113.09
2022-11-01T18:28:24.837Z,100105.13
2022-11-01T18:31:35.314Z,100108.09
2022-11-01T18:35:04.252Z,100111.53
2022-11-01T18:38:26.058Z,100118.09
2022-11-01T18:41:03.117Z,100115.69
2022-11-01T18:43:56.906Z,100116.72
2022-11-01T18:46:33.277Z,100118.25
2022-11-01T18:49:06.016Z,100116.09
2022-11-01T18:51:36.870Z,100123.47
2022-11-01T18:54:33.112Z,100117.44
2022-11-01T18:57:12.499Z,100123.19
2022-11-01T18:59:41.703Z,100117.31
2022-11-01T19:02:11.967Z,100121.53
2022-11-01T19:04:49.157Z,100119.72
2022-11-01T19:07:35.151Z,100116.31
2022-11-01T19:10:22.257Z,100120.47
2022-11-01T19:12:56.911Z,100132.66
2022-11-01T19:15:26.008Z,100125.94
2022-11-01T19:17:58.892Z,100123.63
2022-11-01T19:20:39.141Z,100127.91
2022-11-01T19:23:20.899Z,100128.09
2022-11-01T19:25:51.859Z,100135.31
2022-11-01T19:28:40.660Z,100142.09
2022-11-01T19:31:32.787Z,100126.88
2022-11-01T19:34:08.054Z,100138.56
2022-11-01T19:36:41.286Z,100140.03
2022-11-01T19:39:24.890Z,100147.16
2022-11-01T19:41:54.595Z,100146.56
2022-11-01T19:44:26.749Z,100143.84
2022-11-01T19:47:25.327Z,100149.94
2022-11-01T19:49:53.548Z,100149.94
2022-11-01T19:52:30.643Z,100146.34
2022-11-01T19:54:59.471Z,100161.13
2022-11-01T19:57:44.855Z,100153.34
2022-11-01T20:00:16.388Z,100155.81
2022-11-01T20:02:48.997Z,100159.72
2022-11-01T20:05:56.784Z,100152.56
2022-11-01T20:08:36.319Z,100160.50
2022-11-01T20:11:03.882Z,100164.06
2022-11-01T20:13:32.481Z,100158.19
2022-11-01T20:16:00.507Z,100152.00
2022-11-01T20:18:28.021Z,100159.00
2022-11-01T20:20:56.530Z,100149.69
2022-11-01T20:23:26.694Z,100161.13
2022-11-01T20:25:55.872Z,100154.47
2022-11-01T20:28:23.761Z,100166.69
2022-11-01T20:30:51.507Z,100159.88
2022-11-01T20:33:19.838Z,100159.22
2022-11-01T20:35:49.464Z,100161.28
2022-11-01T20:38:17.166Z,100153.84
2022-11-01T20:40:47.099Z,100148.59
2022-11-01T20:43:14.831Z,100155.22
2022-11-01T20:45:43.234Z,100152.69
2022-11-01T20:48:10.751Z,100148.81
2022-11-01T20:50:41.596Z,100159.09
2022-11-01T20:53:09.926Z,100159.25
2022-11-01T20:55:38.716Z,100151.47
2022-11-01T20:58:06.590Z,100152.53
2022-11-01T21:00:35.985Z,100156.28
2022-11-01T21:03:21.937Z,100156.41
2022-11-01T21:05:51.097Z,100151.16
2022-11-01T21:08:33.583Z,100160.81
2022-11-01T21:11:06.415Z,100148.88
2022-11-01T21:13:46.129Z,100153.72
2022-11-01T21:16:30.728Z,100147.78
2022-11-01T21:19:04.072Z,100150.13
2022-11-01T21:21:45.323Z,100154.13
2022-11-01T21:24:34.764Z,100151.34
2022-11-01T21:27:26.682Z,100149.97
2022-11-01T21:30:14.350Z,100150.59
2022-11-01T21:32:45.021Z,100148.59
2022-11-01T21:35:38.501Z,100148.31
2022-11-01T21:38:36.217Z,100152.06
2022-11-01T21:41:31.687Z,100145.34
2022-11-01T21:44:20.949Z,100149.03
2022-11-01T21:47:13.884Z,100151.22
2022-11-01T21:49:41.651Z,100151.69
2022-11-01T21:54:48.133Z,100152.63
2022-11-01T21:57:17.088Z,100153.53
2022-11-01T21:59:44.879Z,100159.06
2022-11-01T22:02:15.167Z,100161.28
2022-11-01T22:04:44.024Z,100162.63
2022-11-01T22:07:13.123Z,100157.34
2022-11-01T22:09:40.960Z,100153.16
2022-11-01T22:12:08.621Z,100157.84
2022-11-01T22:14:37.433Z,100154.09
2022-11-01T22:17:04.997Z,100145.00
2022-11-01T22:19:32.421Z,100150.13
2022-11-01T22:21:59.834Z,100146.22
2022-11-01T22:24:27.370Z,100150.50
2022-11-01T22:26:54.948Z,100146.09
2022-11-01T22:29:22.356Z,100145.38
2022-11-01T22:31:49.809Z,100144.19
2022-11-01T22:34:17.464Z,100152.81
2022-11-01T22:36:44.917Z,100145.44
2022-11-01T22:39:22.971Z,100148.25
2022-11-01T22:41:50.630Z,100149.50
2022-11-01T22:44:27.540Z,100146.44
2022-11-01T22:47:00.525Z,100140.28
2022-11-01T22:49:50.579Z,100140.03
2022-11-01T22:52:39.321Z,100128.31
2022-11-01T22:55:19.148Z,100124.81
2022-11-01T22:58:24.242Z,100125.63
2022-11-01T23:00:51.831Z,100127.19
2022-11-01T23:03:28.870Z,100128.69
2022-11-01T23:06:00.353Z,100122.38
2022-11-01T23:08:33.175Z,100126.22
2022-11-01T23:11:01.800Z,100125.16
2022-11-01T23:13:55.839Z,100122.84
2022-11-01T23:16:36.626Z,100127.06
2022-11-01T23:19:11.783Z,100127.94
2022-11-01T23:21:39.627Z,100129.19
2022-11-01T23:24:08.680Z,100133.94
2022-11-01T23:26:36.128Z,100124.78
2022-11-01T23:29:03.679Z,100118.19
2022-11-01T23:31:31.382Z,100122.16
2022-11-01T23:33:58.814Z,100125.34
2022-11-01T23:36:29.355Z,100131.13
2022-11-01T23:41:38.255Z,100131.28
2022-11-01T23:44:20.776Z,100132.97
2022-11-01T23:46:52.962Z,100133.13
2022-11-01T23:49:25.421Z,100130.06
2022-11-01T23:51:53.235Z,100135.94
2022-11-01T23:54:36.478Z,100135.06
2022-11-01T23:57:03.985Z,100127.03
2022-11-01T23:59:31.765Z,100123.97
